Time;durP1;ratioP1;P1;durP2;ratioP2;P2;SDS_P1;SDS_P2;PMS_P1;PMS_P2;Temp;Humidity;BMP_temperature;BMP_pressure;BME280_temperature;BME280_humidity;BME280_pressure;Samples;Min_cycle;Max_cycle;Signal;HPM_P1;HPM_P2
2022/06/20 00:02:20;;;;;;;;;5.75;5.75;;;;;;;;5272746;28;9504;-70
2022/06/20 00:04:53;;;;;;;;;4.75;4.75;;;;;;;;5270591;28;8774;-70
2022/06/20 00:07:24;;;;;;;;;6.00;6.00;;;;;;;;5253710;28;8758;-70
2022/06/20 00:09:55;;;;;;;;;18.40;18.20;;;;;;;;5249461;28;8779;-69
2022/06/20 00:12:26;;;;;;;;;43.80;38.00;;;;;;;;5267550;28;8814;-69
2022/06/20 00:14:59;;;;;;;;;35.60;32.00;;;;;;;;5249238;27;8908;-69
2022/06/20 00:17:30;;;;;;;;;21.60;21.60;;;;;;;;5291602;27;8814;-69
2022/06/20 00:20:02;;;;;;;;;11.20;11.20;;;;;;;;5274240;27;9510;-70
2022/06/20 00:22:34;;;;;;;;;7.00;6.40;;;;;;;;5272741;27;8960;-72
2022/06/20 00:25:05;;;;;;;;;5.00;5.00;;;;;;;;5274320;27;8775;-70
2022/06/20 00:27:37;;;;;;;;;7.00;7.00;;;;;;;;5289541;27;9482;-70
2022/06/20 00:30:09;;;;;;;;;5.00;5.00;;;;;;;;5309653;27;8795;-70
2022/06/20 00:32:40;;;;;;;;;6.00;6.00;;;;;;;;5309363;27;8855;-71
2022/06/20 00:35:12;;;;;;;;;5.00;5.00;;;;;;;;5249580;28;8756;-70
2022/06/20 00:37:43;;;;;;;;;2.25;2.25;;;;;;;;5249344;28;8797;-69
2022/06/20 00:40:32;;;;;;;;;5.25;5.25;;;;;;;;5267237;28;8904;-69
2022/06/20 00:43:05;;;;;;;;;10.00;9.20;;;;;;;;5242858;28;8795;-69
2022/06/20 00:45:56;;;;;;;;;18.80;18.80;;;;;;;;5273379;28;8809;-71
2022/06/20 00:48:48;;;;;;;;;12.20;12.20;;;;;;;;5272832;28;8766;-72
2022/06/20 00:51:50;;;;;;;;;5.75;5.75;;;;;;;;5272976;28;8830;-71
2022/06/20 00:55:01;;;;;;;;;7.00;7.00;;;;;;;;5251839;28;8804;-72
2022/06/20 00:58:03;;;;;;;;;8.00;8.00;;;;;;;;5273684;27;8791;-73
2022/06/20 01:00:53;;;;;;;;;3.00;3.00;;;;;;;;5272955;28;8820;-71
2022/06/20 01:03:53;;;;;;;;;6.50;6.50;;;;;;;;5287959;28;8774;-71
2022/06/20 01:06:47;;;;;;;;;3.50;3.50;;;;;;;;5272945;28;8782;-70
2022/06/20 01:09:40;;;;;;;;;3.50;3.50;;;;;;;;5290417;28;8781;-71
2022/06/20 01:12:33;;;;;;;;;5.25;5.25;;;;;;;;5287046;27;8784;-70
2022/06/20 01:15:25;;;;;;;;;4.75;4.75;;;;;;;;5313420;27;8795;-70
2022/06/20 01:18:20;;;;;;;;;11.25;11.25;;;;;;;;5297493;27;8786;-70
2022/06/20 01:21:12;;;;;;;;;8.25;8.25;;;;;;;;5295988;27;9602;-69
2022/06/20 01:24:39;;;;;;;;;6.00;6.00;;;;;;;;5300555;27;8768;-69
2022/06/20 01:27:35;;;;;;;;;7.50;7.50;;;;;;;;5281391;28;8793;-69
2022/06/20 01:30:44;;;;;;;;;5.00;5.00;;;;;;;;5291781;27;8914;-70
2022/06/20 01:33:35;;;;;;;;;4.00;4.00;;;;;;;;5276493;28;8816;-71
2022/06/20 01:39:36;;;;;;;;;5.00;5.00;;;;;;;;5310047;27;9553;-71
2022/06/20 01:42:27;;;;;;;;;7.50;7.50;;;;;;;;5283239;27;8774;-71
2022/06/20 01:48:28;;;;;;;;;3.25;3.25;;;;;;;;5297325;27;8832;-71
2022/06/20 01:51:26;;;;;;;;;3.00;3.00;;;;;;;;5263469;28;8795;-70
2022/06/20 01:54:44;;;;;;;;;9.75;9.75;;;;;;;;5270331;28;8760;-71
2022/06/20 01:57:35;;;;;;;;;7.00;7.00;;;;;;;;5270323;28;8761;-71
2022/06/20 02:00:25;;;;;;;;;6.00;6.00;;;;;;;;5255282;28;8816;-70
2022/06/20 02:03:17;;;;;;;;;4.50;4.50;;;;;;;;5269223;28;8764;-70
2022/06/20 02:06:08;;;;;;;;;4.50;4.50;;;;;;;;5254517;28;8776;-70
2022/06/20 02:08:58;;;;;;;;;4.50;4.50;;;;;;;;5255122;28;9543;-70
2022/06/20 02:11:48;;;;;;;;;6.75;6.75;;;;;;;;5254619;28;8788;-69
2022/06/20 02:14:57;;;;;;;;;6.00;6.00;;;;;;;;5269943;28;8776;-70
2022/06/20 02:17:49;;;;;;;;;5.75;5.75;;;;;;;;5255926;27;8779;-69
2022/06/20 02:20:45;;;;;;;;;6.00;6.00;;;;;;;;5280761;27;8908;-70
2022/06/20 02:23:36;;;;;;;;;7.25;7.25;;;;;;;;5282325;27;8890;-70
2022/06/20 02:26:27;;;;;;;;;9.00;9.00;;;;;;;;5294747;27;8788;-70
2022/06/20 02:29:24;;;;;;;;;13.00;12.60;;;;;;;;5289290;28;8790;-68
2022/06/20 02:32:35;;;;;;;;;3.75;3.75;;;;;;;;5290590;28;8816;-70
2022/06/20 02:35:25;;;;;;;;;2.00;2.00;;;;;;;;5275126;28;8904;-69
2022/06/20 02:38:15;;;;;;;;;3.00;3.00;;;;;;;;5275595;28;8834;-72
2022/06/20 02:41:06;;;;;;;;;1.00;1.00;;;;;;;;5275170;28;8895;-71
2022/06/20 02:43:59;;;;;;;;;0.50;0.50;;;;;;;;5280700;27;8799;-70
2022/06/20 02:46:51;;;;;;;;;2.00;2.00;;;;;;;;5296210;27;8776;-69
2022/06/20 02:49:42;;;;;;;;;1.00;1.00;;;;;;;;5311726;27;8784;-69
2022/06/20 02:52:36;;;;;;;;;1.50;1.50;;;;;;;;5312150;27;8756;-71
2022/06/20 02:55:26;;;;;;;;;1.25;1.25;;;;;;;;5295971;27;8760;-69
2022/06/20 02:58:25;;;;;;;;;2.00;2.00;;;;;;;;5295739;27;8771;-70
2022/06/20 03:01:17;;;;;;;;;1.50;1.50;;;;;;;;5296075;27;8942;-69
2022/06/20 03:04:08;;;;;;;;;2.00;2.00;;;;;;;;5297378;27;8785;-70
2022/06/20 03:07:01;;;;;;;;;2.00;2.00;;;;;;;;5290167;28;9512;-70
2022/06/20 03:09:54;;;;;;;;;1.50;1.50;;;;;;;;5274632;28;8777;-70
2022/06/20 03:12:44;;;;;;;;;3.25;3.25;;;;;;;;5274451;28;8758;-70
2022/06/20 03:15:35;;;;;;;;;22.60;22.60;;;;;;;;5275449;28;8805;-70
2022/06/20 03:18:24;;;;;;;;;2.75;2.75;;;;;;;;5289783;28;8758;-70
2022/06/20 03:21:15;;;;;;;;;2.50;2.50;;;;;;;;5273996;28;8828;-70
2022/06/20 03:24:06;;;;;;;;;1.00;1.00;;;;;;;;5292877;27;8768;-71
2022/06/20 03:26:56;;;;;;;;;1.50;1.50;;;;;;;;5306486;27;8791;-71
2022/06/20 03:29:46;;;;;;;;;1.50;1.50;;;;;;;;5274900;28;9522;-70
2022/06/20 03:32:36;;;;;;;;;4.00;4.00;;;;;;;;5274149;28;8780;-69
2022/06/20 03:35:30;;;;;;;;;1.00;1.00;;;;;;;;5288244;28;8782;-71
2022/06/20 03:38:20;;;;;;;;;1.25;1.25;;;;;;;;5289128;27;8810;-70
2022/06/20 03:41:12;;;;;;;;;1.00;1.00;;;;;;;;5273835;27;8872;-72
2022/06/20 03:44:10;;;;;;;;;1.50;1.50;;;;;;;;5259124;28;8778;-70
2022/06/20 03:47:22;;;;;;;;;0.75;0.75;;;;;;;;5288762;28;8794;-70
2022/06/20 03:50:20;;;;;;;;;1.00;1.00;;;;;;;;5273171;28;8770;-70
2022/06/20 03:53:09;;;;;;;;;2.00;2.00;;;;;;;;5288946;28;8816;-70
2022/06/20 03:56:01;;;;;;;;;3.75;3.75;;;;;;;;5288816;27;8876;-71
2022/06/20 03:58:59;;;;;;;;;1.00;1.00;;;;;;;;5273330;28;8769;-70
2022/06/20 04:01:52;;;;;;;;;0.00;0.00;;;;;;;;5285241;27;8792;-70
2022/06/20 04:04:48;;;;;;;;;11.60;11.60;;;;;;;;5294392;27;8786;-70
2022/06/20 04:07:44;;;;;;;;;2.25;2.25;;;;;;;;5310178;27;8779;-70
2022/06/20 04:14:00;;;;;;;;;5.50;5.50;;;;;;;;5282325;28;8782;-70
2022/06/20 04:20:22;;;;;;;;;106.25;96.75;;;;;;;;5293204;27;8822;-71
2022/06/20 04:23:15;;;;;;;;;74.60;64.60;;;;;;;;5294224;27;8767;-70
2022/06/20 04:26:04;;;;;;;;;276.00;231.75;;;;;;;;5308118;27;8843;-70
2022/06/20 04:28:58;;;;;;;;;246.25;206.50;;;;;;;;5279264;27;11600;-70
2022/06/20 04:32:00;;;;;;;;;155.33;133.67;;;;;;;;5293511;27;11435;-72
2022/06/20 04:34:54;;;;;;;;;92.60;88.80;;;;;;;;5292568;27;9211;-71
2022/06/20 04:37:52;;;;;;;;;43.80;38.00;;;;;;;;5258611;28;8799;-71
2022/06/20 04:40:45;;;;;;;;;25.00;24.20;;;;;;;;5271866;28;8886;-70
2022/06/20 04:43:53;;;;;;;;;9.50;9.50;;;;;;;;5272368;28;8782;-70
2022/06/20 04:46:42;;;;;;;;;17.25;17.00;;;;;;;;5272089;28;8828;-69
2022/06/20 04:49:33;;;;;;;;;49.00;42.20;;;;;;;;5272830;28;9505;-69
2022/06/20 04:52:26;;;;;;;;;28.40;27.80;;;;;;;;5258397;28;8774;-71
2022/06/20 04:55:17;;;;;;;;;28.20;28.00;;;;;;;;5272701;28;8781;-70
2022/06/20 04:58:27;;;;;;;;;36.60;33.80;;;;;;;;5288056;28;8778;-65
2022/06/20 05:01:17;;;;;;;;;20.20;19.80;;;;;;;;5287505;28;8829;-68
2022/06/20 05:04:07;;;;;;;;;8.75;8.75;;;;;;;;5272474;28;8770;-68
2022/06/20 05:06:58;;;;;;;;;4.00;4.00;;;;;;;;5272659;28;8775;-68
2022/06/20 05:09:48;;;;;;;;;3.25;3.25;;;;;;;;5287913;28;8777;-68
2022/06/20 05:12:43;;;;;;;;;7.75;7.50;;;;;;;;5293371;27;8864;-68
2022/06/20 05:15:40;;;;;;;;;70.80;55.80;;;;;;;;5308877;27;9783;-69
2022/06/20 05:18:39;;;;;;;;;13.80;13.80;;;;;;;;5278844;28;8878;-68
2022/06/20 05:21:32;;;;;;;;;5.00;5.00;;;;;;;;5272029;28;8854;-68
2022/06/20 05:24:23;;;;;;;;;4.00;4.00;;;;;;;;5272490;28;8758;-68
2022/06/20 05:27:20;;;;;;;;;51.80;43.80;;;;;;;;5296726;27;9648;-68
2022/06/20 05:30:14;;;;;;;;;4.00;4.00;;;;;;;;5279018;27;8803;-69
2022/06/20 05:33:10;;;;;;;;;6.00;6.00;;;;;;;;5307009;27;8772;-69
2022/06/20 05:36:10;;;;;;;;;5.75;5.75;;;;;;;;5271049;28;8812;-69
2022/06/20 05:38:44;;;;;;;;;6.25;6.25;;;;;;;;5235495;28;8792;-69
2022/06/20 05:41:34;;;;;;;;;21.00;21.00;;;;;;;;5272218;28;8772;-70
2022/06/20 05:44:05;;;;;;;;;8.50;8.50;;;;;;;;5287463;28;9561;-69
2022/06/20 05:46:41;;;;;;;;;42.00;37.60;;;;;;;;5252249;28;8789;-69
2022/06/20 05:49:16;;;;;;;;;12.25;12.25;;;;;;;;5262680;28;9508;-69
2022/06/20 05:52:07;;;;;;;;;2.75;2.75;;;;;;;;5283122;28;8790;-70
2022/06/20 05:54:42;;;;;;;;;6.25;6.25;;;;;;;;5236134;28;8784;-68
2022/06/20 05:57:18;;;;;;;;;4.75;4.75;;;;;;;;5291813;27;8791;-69
2022/06/20 06:00:11;;;;;;;;;4.75;4.75;;;;;;;;5277655;27;8850;-69
2022/06/20 06:02:49;;;;;;;;;2.00;2.00;;;;;;;;5294439;27;8909;-69
2022/06/20 06:05:25;;;;;;;;;5.00;5.00;;;;;;;;5296809;27;8877;-68
2022/06/20 06:08:11;;;;;;;;;4.00;4.00;;;;;;;;5258372;27;8784;-70
2022/06/20 06:10:46;;;;;;;;;2.00;2.00;;;;;;;;5294271;27;8768;-69
2022/06/20 06:13:20;;;;;;;;;6.00;6.00;;;;;;;;5293769;27;8756;-69
2022/06/20 06:18:51;;;;;;;;;4.00;4.00;;;;;;;;5291657;27;8810;-69
2022/06/20 06:21:24;;;;;;;;;5.50;5.50;;;;;;;;5272222;28;8801;-68
2022/06/20 06:23:56;;;;;;;;;6.75;6.00;;;;;;;;5255959;28;8854;-68
2022/06/20 06:26:28;;;;;;;;;5.50;5.50;;;;;;;;5263327;27;9471;-73
2022/06/20 06:29:00;;;;;;;;;32.60;28.80;;;;;;;;5274274;27;9457;-72
2022/06/20 06:31:37;;;;;;;;;6.00;6.00;;;;;;;;5260740;28;8775;-70
2022/06/20 06:34:27;;;;;;;;;5.50;5.50;;;;;;;;5287293;28;8786;-70
2022/06/20 06:37:01;;;;;;;;;12.00;12.00;;;;;;;;5272756;28;8769;-70
2022/06/20 06:39:33;;;;;;;;;67.80;48.20;;;;;;;;5290271;28;9562;-70
2022/06/20 06:42:23;;;;;;;;;64.00;52.20;;;;;;;;5290477;28;8757;-70
2022/06/20 06:44:55;;;;;;;;;13.00;13.00;;;;;;;;5290481;28;8754;-69
2022/06/20 06:47:34;;;;;;;;;9.25;9.25;;;;;;;;5277438;28;8788;-72
2022/06/20 06:50:20;;;;;;;;;11.50;11.25;;;;;;;;5288194;27;9547;-72
2022/06/20 06:52:55;;;;;;;;;17.40;17.40;;;;;;;;5288540;27;8796;-68
2022/06/20 06:55:33;;;;;;;;;46.20;39.20;;;;;;;;5271957;28;8774;-70
2022/06/20 06:58:18;;;;;;;;;31.40;30.00;;;;;;;;5253639;28;8831;-68
2022/06/20 07:01:00;;;;;;;;;8.25;8.25;;;;;;;;5267022;28;8826;-69
2022/06/20 07:03:41;;;;;;;;;7.75;7.75;;;;;;;;5256514;27;8756;-68
2022/06/20 07:06:20;;;;;;;;;35.20;32.80;;;;;;;;5288495;27;8800;-69
2022/06/20 07:09:17;;;;;;;;;2.00;2.00;;;;;;;;5281505;28;8778;-69
2022/06/20 07:12:22;;;;;;;;;5.00;5.00;;;;;;;;5278885;27;8786;-70
2022/06/20 07:15:01;;;;;;;;;8.25;8.25;;;;;;;;5298620;27;8770;-68
2022/06/20 07:17:55;;;;;;;;;2.25;2.25;;;;;;;;5271671;28;9536;-68
2022/06/20 07:20:28;;;;;;;;;1.75;1.75;;;;;;;;5281498;28;8790;-69
2022/06/20 07:23:00;;;;;;;;;4.50;4.50;;;;;;;;5253932;28;8824;-69
2022/06/20 07:25:35;;;;;;;;;4.50;4.50;;;;;;;;5254522;28;8892;-68
2022/06/20 07:28:13;;;;;;;;;6.50;6.50;;;;;;;;5248782;28;8788;-68
2022/06/20 07:30:48;;;;;;;;;2.25;2.25;;;;;;;;5268419;28;8789;-68
2022/06/20 07:33:51;;;;;;;;;11.00;10.75;;;;;;;;5267978;28;8844;-69
2022/06/20 07:36:27;;;;;;;;;3.25;3.25;;;;;;;;5235002;28;8926;-69
2022/06/20 07:39:01;;;;;;;;;2.50;2.50;;;;;;;;5243751;28;8816;-69
2022/06/20 07:41:53;;;;;;;;;3.00;3.00;;;;;;;;5237410;28;8828;-69
2022/06/20 07:44:30;;;;;;;;;3.00;3.00;;;;;;;;5269930;28;8778;-69
2022/06/20 07:47:04;;;;;;;;;3.00;3.00;;;;;;;;5254286;28;8762;-69
2022/06/20 07:49:41;;;;;;;;;4.00;4.00;;;;;;;;5271168;28;8761;-69
2022/06/20 07:52:16;;;;;;;;;4.50;4.50;;;;;;;;5271180;28;8773;-69
2022/06/20 07:54:55;;;;;;;;;3.50;3.50;;;;;;;;5289089;28;9543;-69
2022/06/20 07:57:31;;;;;;;;;4.25;4.25;;;;;;;;5270845;28;8777;-69
2022/06/20 08:00:15;;;;;;;;;3.00;3.00;;;;;;;;5288991;28;9535;-70
2022/06/20 08:02:52;;;;;;;;;15.25;12.50;;;;;;;;5271271;28;8774;-69
2022/06/20 08:05:23;;;;;;;;;20.75;19.75;;;;;;;;5270846;28;8765;-69
2022/06/20 08:07:58;;;;;;;;;24.80;24.00;;;;;;;;5237188;28;9526;-70
2022/06/20 08:10:50;;;;;;;;;52.20;43.20;;;;;;;;5288688;28;8770;-69
2022/06/20 08:13:41;;;;;;;;;18.25;17.50;;;;;;;;5288872;28;8773;-74
2022/06/20 08:16:19;;;;;;;;;8.00;8.00;;;;;;;;5270519;28;8766;-69
2022/06/20 08:18:51;;;;;;;;;5.00;5.00;;;;;;;;5252715;28;8802;-70
2022/06/20 08:21:48;;;;;;;;;3.75;3.75;;;;;;;;5287569;28;9398;-69
2022/06/20 08:25:01;;;;;;;;;1.75;1.75;;;;;;;;5288390;28;9469;-69
2022/06/20 08:27:38;;;;;;;;;4.00;4.00;;;;;;;;5278285;28;8774;-68
2022/06/20 08:30:14;;;;;;;;;3.50;3.00;;;;;;;;5270080;28;8782;-69
2022/06/20 08:32:45;;;;;;;;;3.00;3.00;;;;;;;;5270064;28;8778;-69
2022/06/20 08:35:29;;;;;;;;;2.33;2.33;;;;;;;;5288591;28;8762;-67
2022/06/20 08:38:00;;;;;;;;;4.00;4.00;;;;;;;;5253254;28;8832;-68
2022/06/20 08:40:58;;;;;;;;;2.75;2.75;;;;;;;;5288513;28;8818;-67
2022/06/20 08:43:42;;;;;;;;;3.00;3.00;;;;;;;;5288420;28;8757;-67
2022/06/20 08:46:25;;;;;;;;;2.00;2.00;;;;;;;;5270033;28;8759;-68
2022/06/20 08:49:11;;;;;;;;;3.00;3.00;;;;;;;;5249519;28;8805;-68
2022/06/20 08:52:07;;;;;;;;;1.50;1.50;;;;;;;;5287970;28;8758;-68
2022/06/20 08:54:58;;;;;;;;;4.75;4.75;;;;;;;;5252809;28;8870;-67
2022/06/20 08:57:50;;;;;;;;;2.00;2.00;;;;;;;;5287498;28;8850;-70
2022/06/20 09:00:30;;;;;;;;;3.00;3.00;;;;;;;;5288189;28;9601;-69
2022/06/20 09:03:13;;;;;;;;;3.00;3.00;;;;;;;;5251522;28;8788;-69
2022/06/20 09:06:03;;;;;;;;;4.50;4.50;;;;;;;;5270021;28;8784;-68
2022/06/20 09:09:01;;;;;;;;;9.00;9.00;;;;;;;;5255219;28;9451;-68
2022/06/20 09:12:01;;;;;;;;;8.00;8.00;;;;;;;;5269759;28;9574;-68
2022/06/20 09:14:56;;;;;;;;;6.75;6.75;;;;;;;;5269924;28;8796;-69
2022/06/20 09:17:27;;;;;;;;;21.00;21.00;;;;;;;;5269114;28;8788;-69
2022/06/20 09:20:13;;;;;;;;;22.75;22.75;;;;;;;;5253150;28;8796;-67
2022/06/20 09:23:17;;;;;;;;;8.50;8.50;;;;;;;;5269844;28;9609;-67
2022/06/20 09:25:55;;;;;;;;;21.80;21.80;;;;;;;;5235946;28;8798;-68
2022/06/20 09:28:35;;;;;;;;;4.75;4.75;;;;;;;;5253006;28;9497;-68
2022/06/20 09:31:09;;;;;;;;;48.60;41.60;;;;;;;;5291829;28;8766;-68
2022/06/20 09:33:40;;;;;;;;;58.80;46.60;;;;;;;;5273508;28;8801;-68
2022/06/20 09:36:11;;;;;;;;;16.00;16.00;;;;;;;;5289447;28;8782;-69
2022/06/20 09:38:42;;;;;;;;;3.00;3.00;;;;;;;;5289865;28;8785;-68
2022/06/20 09:41:16;;;;;;;;;4.00;4.00;;;;;;;;5287173;28;10622;-68
2022/06/20 09:44:05;;;;;;;;;17.50;17.50;;;;;;;;5238063;28;8782;-68
2022/06/20 09:46:43;;;;;;;;;25.40;25.40;;;;;;;;5287362;28;8842;-68
2022/06/20 09:49:33;;;;;;;;;84.00;72.40;;;;;;;;5287145;28;8908;-67
2022/06/20 09:52:04;;;;;;;;;41.60;37.40;;;;;;;;5288466;28;8896;-68
2022/06/20 09:54:42;;;;;;;;;50.00;42.80;;;;;;;;5254391;28;8782;-67
2022/06/20 09:57:43;;;;;;;;;9.50;9.50;;;;;;;;5260314;28;8772;-67
2022/06/20 10:00:35;;;;;;;;;9.00;9.00;;;;;;;;5280794;28;8806;-68
2022/06/20 10:03:09;;;;;;;;;29.20;29.20;;;;;;;;5270806;28;8889;-68
2022/06/20 10:05:42;;;;;;;;;8.75;8.75;;;;;;;;5255339;28;8936;-68
2022/06/20 10:08:33;;;;;;;;;9.00;9.00;;;;;;;;5272735;28;8800;-67
2022/06/20 10:11:22;;;;;;;;;16.75;16.75;;;;;;;;5275602;28;8786;-69
2022/06/20 10:14:08;;;;;;;;;17.67;17.67;;;;;;;;5290639;28;9514;-69
2022/06/20 10:16:53;;;;;;;;;8.50;8.50;;;;;;;;5255700;28;8912;-68
2022/06/20 10:19:33;;;;;;;;;3.00;3.00;;;;;;;;5272376;28;8770;-67
2022/06/20 10:22:11;;;;;;;;;9.25;9.25;;;;;;;;5250972;28;8823;-68
2022/06/20 10:24:53;;;;;;;;;24.00;23.20;;;;;;;;5251471;28;8796;-70
2022/06/20 10:27:27;;;;;;;;;12.50;12.00;;;;;;;;5251494;28;8784;-72
2022/06/20 10:30:01;;;;;;;;;5.25;5.25;;;;;;;;5251330;28;8771;-68
2022/06/20 10:32:34;;;;;;;;;10.00;9.00;;;;;;;;5235034;28;8768;-68
2022/06/20 10:35:08;;;;;;;;;5.00;5.00;;;;;;;;5269381;28;8775;-69
2022/06/20 10:37:51;;;;;;;;;4.00;4.00;;;;;;;;5268171;28;8775;-68
2022/06/20 10:40:59;;;;;;;;;4.00;4.00;;;;;;;;5253059;28;8911;-68
2022/06/20 10:43:38;;;;;;;;;16.50;16.25;;;;;;;;5269399;28;8768;-69
2022/06/20 10:46:18;;;;;;;;;15.00;15.00;;;;;;;;5251177;28;8890;-67
2022/06/20 10:48:50;;;;;;;;;4.00;4.00;;;;;;;;5272331;28;8774;-79
2022/06/20 10:51:28;;;;;;;;;63.40;51.00;;;;;;;;5270153;27;8806;-76
2022/06/20 10:54:04;;;;;;;;;79.60;63.80;;;;;;;;5276422;27;8786;-74
2022/06/20 10:56:47;;;;;;;;;46.20;39.40;;;;;;;;5276273;27;8825;-76
2022/06/20 10:59:36;;;;;;;;;15.40;15.40;;;;;;;;5258923;27;8779;-77
2022/06/20 11:02:26;;;;;;;;;6.25;6.25;;;;;;;;5257973;28;8902;-77
2022/06/20 11:05:19;;;;;;;;;1.50;1.50;;;;;;;;5250698;28;8772;-78
2022/06/20 11:07:50;;;;;;;;;2.00;2.00;;;;;;;;5250550;28;9620;-77
2022/06/20 11:10:36;;;;;;;;;13.00;13.00;;;;;;;;5255997;28;8790;-76
2022/06/20 11:13:13;;;;;;;;;42.60;36.60;;;;;;;;5269006;27;8772;-78
2022/06/20 11:16:03;;;;;;;;;75.00;62.00;;;;;;;;5275363;27;8821;-77
2022/06/20 11:18:48;;;;;;;;;24.60;24.20;;;;;;;;5310755;27;8768;-77
2022/06/20 11:21:22;;;;;;;;;19.40;19.40;;;;;;;;5264870;28;9544;-79
2022/06/20 11:24:16;;;;;;;;;14.40;14.40;;;;;;;;5254092;28;8781;-78
2022/06/20 11:26:58;;;;;;;;;61.20;45.40;;;;;;;;5274868;28;8863;-76
2022/06/20 11:29:47;;;;;;;;;32.80;31.80;;;;;;;;5285843;27;9616;-77
2022/06/20 11:32:38;;;;;;;;;4.00;4.00;;;;;;;;5256843;28;8784;-76
2022/06/20 11:35:18;;;;;;;;;3.25;3.25;;;;;;;;5254809;28;8795;-77
2022/06/20 11:37:59;;;;;;;;;2.00;2.00;;;;;;;;5234411;28;8895;-79
2022/06/20 11:41:02;;;;;;;;;44.20;38.20;;;;;;;;5231799;28;8815;-78
2022/06/20 11:43:38;;;;;;;;;32.40;31.40;;;;;;;;5225395;28;8799;-77
2022/06/20 11:46:12;;;;;;;;;18.20;18.20;;;;;;;;5231858;28;8788;-78
2022/06/20 11:48:43;;;;;;;;;2.75;2.75;;;;;;;;5276239;27;8796;-77
2022/06/20 11:51:53;;;;;;;;;6.00;6.00;;;;;;;;5276449;27;8787;-75
2022/06/20 11:54:42;;;;;;;;;1.50;1.50;;;;;;;;5274928;27;8786;-75
2022/06/20 11:57:20;;;;;;;;;17.25;17.25;;;;;;;;5275125;27;8763;-76
2022/06/20 12:00:09;;;;;;;;;5.00;5.00;;;;;;;;5274205;27;8827;-77
2022/06/20 12:03:05;;;;;;;;;2.50;2.50;;;;;;;;5310329;27;8755;-80
2022/06/20 12:05:42;;;;;;;;;2.75;2.75;;;;;;;;5283863;28;8797;-78
2022/06/20 12:08:19;;;;;;;;;2.75;2.75;;;;;;;;5279974;27;8768;-77
2022/06/20 12:11:15;;;;;;;;;12.00;12.00;;;;;;;;5259429;28;8910;-77
2022/06/20 12:14:12;;;;;;;;;5.50;5.50;;;;;;;;5214401;28;8783;-77
2022/06/20 12:17:00;;;;;;;;;13.75;13.75;;;;;;;;5226510;28;9510;-78
2022/06/20 12:25:47;;;;;;;;;6.00;6.00;;;;;;;;5277443;27;8815;-76
2022/06/20 12:28:21;;;;;;;;;5.50;5.50;;;;;;;;5289637;27;8800;-77
2022/06/20 12:30:59;;;;;;;;;4.00;4.00;;;;;;;;5234268;28;8946;-76
2022/06/20 12:33:33;;;;;;;;;9.25;9.25;;;;;;;;5250809;27;8780;-78
2022/06/20 12:36:10;;;;;;;;;14.00;13.25;;;;;;;;5300179;27;9531;-81
2022/06/20 12:39:04;;;;;;;;;4.75;4.75;;;;;;;;5255724;28;9555;-85
2022/06/20 12:41:39;;;;;;;;;12.25;12.25;;;;;;;;5253097;28;8810;-81
2022/06/20 12:44:25;;;;;;;;;11.00;11.00;;;;;;;;5263179;28;8791;-76
2022/06/20 12:46:59;;;;;;;;;5.75;5.75;;;;;;;;5267228;28;9546;-77
2022/06/20 12:49:33;;;;;;;;;5.00;5.00;;;;;;;;5215554;28;8772;-77
2022/06/20 12:52:11;;;;;;;;;4.25;4.25;;;;;;;;5215687;28;9483;-78
2022/06/20 12:55:01;;;;;;;;;5.25;5.25;;;;;;;;5282594;27;8795;-78
2022/06/20 12:57:44;;;;;;;;;3.00;3.00;;;;;;;;5257183;27;8815;-78
2022/06/20 13:00:15;;;;;;;;;7.50;7.50;;;;;;;;5256688;27;11330;-77
2022/06/20 13:02:49;;;;;;;;;7.00;7.00;;;;;;;;5257186;27;8779;-78
2022/06/20 13:05:39;;;;;;;;;7.25;7.25;;;;;;;;5310814;27;8796;-77
2022/06/20 13:08:22;;;;;;;;;14.50;14.50;;;;;;;;5278494;27;8768;-78
2022/06/20 13:10:53;;;;;;;;;9.00;9.00;;;;;;;;5277774;27;8780;-77
2022/06/20 13:13:44;;;;;;;;;7.75;7.75;;;;;;;;5266763;28;8934;-77
2022/06/20 13:16:15;;;;;;;;;4.00;4.00;;;;;;;;5265825;28;9578;-76
2022/06/20 13:19:01;;;;;;;;;2.00;2.00;;;;;;;;5276077;28;8793;-78
2022/06/20 13:21:37;;;;;;;;;2.50;2.50;;;;;;;;5291701;28;8828;-77
2022/06/20 13:24:29;;;;;;;;;2.75;2.75;;;;;;;;5236731;28;9564;-76
2022/06/20 13:27:22;;;;;;;;;4.50;4.50;;;;;;;;5191597;27;8808;-81
2022/06/20 13:30:12;;;;;;;;;7.00;7.00;;;;;;;;5256715;28;8796;-75
2022/06/20 13:32:52;;;;;;;;;6.00;6.00;;;;;;;;5240340;28;8762;-74
2022/06/20 13:35:23;;;;;;;;;8.00;8.00;;;;;;;;5246259;28;8791;-75
2022/06/20 13:38:03;;;;;;;;;7.25;7.25;;;;;;;;5235471;28;8780;-76
2022/06/20 13:40:34;;;;;;;;;10.00;10.00;;;;;;;;5235805;28;9631;-76
2022/06/20 13:43:23;;;;;;;;;6.00;6.00;;;;;;;;5239739;27;8784;-75
2022/06/20 13:46:14;;;;;;;;;3.25;3.25;;;;;;;;5251930;27;8855;-76
2022/06/20 13:49:22;;;;;;;;;5.50;5.00;;;;;;;;5280023;27;8760;-75
2022/06/20 13:52:05;;;;;;;;;6.00;6.00;;;;;;;;5259117;27;8767;-75
2022/06/20 13:54:48;;;;;;;;;8.25;6.00;;;;;;;;5292292;27;8792;-75
2022/06/20 13:57:24;;;;;;;;;4.75;4.75;;;;;;;;5258950;27;8802;-75
2022/06/20 14:00:13;;;;;;;;;3.50;3.50;;;;;;;;5256958;27;10032;-75
2022/06/20 14:03:03;;;;;;;;;5.75;5.25;;;;;;;;5273389;27;8795;-75
2022/06/20 14:05:35;;;;;;;;;8.50;8.50;;;;;;;;5276807;28;8786;-75
2022/06/20 14:08:08;;;;;;;;;4.75;4.75;;;;;;;;5254314;28;8799;-75
2022/06/20 14:10:48;;;;;;;;;10.00;9.00;;;;;;;;5303622;27;8793;-75
2022/06/20 14:13:45;;;;;;;;;1.50;1.50;;;;;;;;5253782;27;8768;-77
2022/06/20 14:16:20;;;;;;;;;4.75;4.75;;;;;;;;5272314;27;8804;-75
2022/06/20 14:18:55;;;;;;;;;3.00;3.00;;;;;;;;5266572;28;9247;-74
2022/06/20 14:21:37;;;;;;;;;5.75;5.75;;;;;;;;5249004;28;8868;-74
2022/06/20 14:24:17;;;;;;;;;3.50;3.50;;;;;;;;5280432;27;8776;-74
2022/06/20 14:26:57;;;;;;;;;3.75;3.75;;;;;;;;5273751;27;8818;-75
2022/06/20 14:29:31;;;;;;;;;3.00;3.00;;;;;;;;5258288;27;8832;-75
2022/06/20 14:32:24;;;;;;;;;3.25;3.25;;;;;;;;5277751;27;9512;-74
2022/06/20 14:35:23;;;;;;;;;5.50;5.50;;;;;;;;5309782;27;8780;-74
2022/06/20 14:38:06;;;;;;;;;7.00;7.00;;;;;;;;5274615;27;8788;-75
2022/06/20 14:40:47;;;;;;;;;5.25;5.25;;;;;;;;5309500;27;9534;-76
2022/06/20 14:43:39;;;;;;;;;1.00;1.00;;;;;;;;5249570;28;8799;-76
2022/06/20 14:46:13;;;;;;;;;4.00;4.00;;;;;;;;5216648;28;8930;-75
2022/06/20 14:48:48;;;;;;;;;4.00;4.00;;;;;;;;5216167;28;8810;-75
2022/06/20 14:51:41;;;;;;;;;3.00;3.00;;;;;;;;5252263;28;8775;-75
2022/06/20 14:54:18;;;;;;;;;1.00;1.00;;;;;;;;5264630;28;8810;-76
2022/06/20 14:56:53;;;;;;;;;11.75;11.50;;;;;;;;5255004;28;8784;-76
2022/06/20 14:59:31;;;;;;;;;5.00;5.00;;;;;;;;5259767;28;8857;-75
2022/06/20 15:02:23;;;;;;;;;4.25;4.25;;;;;;;;5225700;28;8827;-77
2022/06/20 15:05:06;;;;;;;;;3.00;3.00;;;;;;;;5240797;28;8819;-76
2022/06/20 15:07:44;;;;;;;;;5.75;5.75;;;;;;;;5237063;28;8908;-74
2022/06/20 15:10:36;;;;;;;;;5.00;5.00;;;;;;;;5270155;28;9550;-76
2022/06/20 15:13:23;;;;;;;;;3.25;3.25;;;;;;;;5270170;28;8782;-79
2022/06/20 15:15:57;;;;;;;;;1.00;1.00;;;;;;;;5260722;27;9545;-75
2022/06/20 15:18:42;;;;;;;;;4.75;4.75;;;;;;;;5290659;27;8771;-74
2022/06/20 15:21:13;;;;;;;;;2.75;2.75;;;;;;;;5273584;28;8830;-74
2022/06/20 15:24:10;;;;;;;;;0.00;0.00;;;;;;;;5236182;28;8822;-74
2022/06/20 15:26:41;;;;;;;;;3.75;3.75;;;;;;;;5270616;28;9403;-73
2022/06/20 15:29:19;;;;;;;;;5.75;5.75;;;;;;;;5286888;28;8801;-74
2022/06/20 15:32:00;;;;;;;;;3.00;3.00;;;;;;;;5286031;28;9532;-75
2022/06/20 15:35:22;;;;;;;;;4.00;4.00;;;;;;;;5288284;28;8924;-76
2022/06/20 15:37:57;;;;;;;;;8.50;8.50;;;;;;;;5252555;28;8769;-74
2022/06/20 15:40:32;;;;;;;;;10.00;9.75;;;;;;;;5249186;28;8850;-75
2022/06/20 15:43:16;;;;;;;;;5.50;5.00;;;;;;;;5248533;28;8776;-75
2022/06/20 15:46:24;;;;;;;;;3.25;3.25;;;;;;;;5252077;28;8792;-74
2022/06/20 15:49:19;;;;;;;;;1.00;1.00;;;;;;;;5250786;28;8773;-76
2022/06/20 15:51:59;;;;;;;;;2.00;2.00;;;;;;;;5231734;28;8790;-76
2022/06/20 15:54:52;;;;;;;;;1.00;1.00;;;;;;;;5247144;27;8849;-74
2022/06/20 15:57:39;;;;;;;;;0.50;0.50;;;;;;;;5256559;28;8772;-75
2022/06/20 16:00:15;;;;;;;;;1.75;1.75;;;;;;;;5231473;28;8820;-76
2022/06/20 16:02:57;;;;;;;;;1.00;1.00;;;;;;;;5269246;28;8851;-77
2022/06/20 16:05:34;;;;;;;;;1.75;1.75;;;;;;;;5264745;28;8788;-75
2022/06/20 16:08:23;;;;;;;;;3.00;3.00;;;;;;;;5253778;28;9502;-75
2022/06/20 16:11:00;;;;;;;;;1.00;1.00;;;;;;;;5259314;28;8788;-76
2022/06/20 16:13:34;;;;;;;;;0.00;0.00;;;;;;;;5231052;28;8793;-69
2022/06/20 16:16:25;;;;;;;;;3.00;3.00;;;;;;;;5281841;27;9476;-68
2022/06/20 16:19:19;;;;;;;;;1.75;1.75;;;;;;;;5275233;28;8800;-68
2022/06/20 16:21:54;;;;;;;;;2.50;2.50;;;;;;;;5249024;28;9538;-68
2022/06/20 16:24:34;;;;;;;;;4.75;4.75;;;;;;;;5267473;28;8780;-69
2022/06/20 16:27:23;;;;;;;;;2.25;2.25;;;;;;;;5289771;27;9504;-68
2022/06/20 16:29:57;;;;;;;;;1.00;1.00;;;;;;;;5288523;28;8792;-68
2022/06/20 16:32:33;;;;;;;;;4.00;4.00;;;;;;;;5270393;28;9342;-69
2022/06/20 16:35:19;;;;;;;;;2.00;2.00;;;;;;;;5288357;28;8774;-69
2022/06/20 16:38:10;;;;;;;;;6.50;6.50;;;;;;;;5233551;28;8792;-68
2022/06/20 16:40:47;;;;;;;;;1.50;1.50;;;;;;;;5248895;28;8823;-70
2022/06/20 16:43:18;;;;;;;;;2.50;2.50;;;;;;;;5266898;28;8813;-68
2022/06/20 16:45:55;;;;;;;;;0.00;0.00;;;;;;;;5253580;28;8754;-68
2022/06/20 16:48:26;;;;;;;;;1.00;1.00;;;;;;;;5253240;28;8786;-69
2022/06/20 16:51:00;;;;;;;;;3.33;3.33;;;;;;;;5269959;28;8796;-68
2022/06/20 16:53:51;;;;;;;;;3.50;3.50;;;;;;;;5235994;28;11305;-68
2022/06/20 16:56:24;;;;;;;;;1.00;1.00;;;;;;;;5269822;28;8806;-68
2022/06/20 16:59:06;;;;;;;;;1.25;1.25;;;;;;;;5288009;28;8782;-68
2022/06/20 17:01:52;;;;;;;;;1.00;1.00;;;;;;;;5253085;28;8789;-68